sensor_id;sensor_type;location;lat;lon;timestamp;temperature;humidity
41630;DHT22;27322;49.488;8.480;2023-06-22T00:00:49;23.70;99.90
41630;DHT22;27322;49.488;8.480;2023-06-22T00:03:15;23.70;99.90
41630;DHT22;27322;49.488;8.480;2023-06-22T00:05:40;23.70;99.90
41630;DHT22;27322;49.488;8.480;2023-06-22T00:08:06;23.70;99.90
41630;DHT22;27322;49.488;8.480;2023-06-22T00:10:31;23.60;99.90
41630;DHT22;27322;49.488;8.480;2023-06-22T00:12:57;23.60;99.90
41630;DHT22;27322;49.488;8.480;2023-06-22T00:15:23;23.60;99.90
41630;DHT22;27322;49.488;8.480;2023-06-22T00:17:49;23.60;99.90
41630;DHT22;27322;49.488;8.480;2023-06-22T00:20:15;23.60;99.90
41630;DHT22;27322;49.488;8.480;2023-06-22T00:22:42;23.60;99.90
41630;DHT22;27322;49.488;8.480;2023-06-22T00:25:09;23.60;99.90
41630;DHT22;27322;49.488;8.480;2023-06-22T00:27:35;23.60;99.90
41630;DHT22;27322;49.488;8.480;2023-06-22T00:30:01;23.70;99.90
41630;DHT22;27322;49.488;8.480;2023-06-22T00:32:27;23.70;99.90
41630;DHT22;27322;49.488;8.480;2023-06-22T00:34:52;23.80;99.90
41630;DHT22;27322;49.488;8.480;2023-06-22T00:37:18;23.80;99.90
41630;DHT22;27322;49.488;8.480;2023-06-22T00:39:44;23.90;99.90
41630;DHT22;27322;49.488;8.480;2023-06-22T00:42:09;24.00;99.90
41630;DHT22;27322;49.488;8.480;2023-06-22T00:44:36;24.10;99.90
41630;DHT22;27322;49.488;8.480;2023-06-22T00:47:02;24.10;99.90
41630;DHT22;27322;49.488;8.480;2023-06-22T00:49:28;24.20;99.90
41630;DHT22;27322;49.488;8.480;2023-06-22T00:51:54;24.30;99.90
41630;DHT22;27322;49.488;8.480;2023-06-22T00:54:21;24.30;99.90
41630;DHT22;27322;49.488;8.480;2023-06-22T00:56:52;24.30;99.90
41630;DHT22;27322;49.488;8.480;2023-06-22T00:59:20;24.20;99.90
41630;DHT22;27322;49.488;8.480;2023-06-22T01:01:46;24.00;99.90
41630;DHT22;27322;49.488;8.480;2023-06-22T01:04:12;23.70;99.90
41630;DHT22;27322;49.488;8.480;2023-06-22T01:06:57;23.70;99.90
41630;DHT22;27322;49.488;8.480;2023-06-22T01:09:31;23.80;99.90
41630;DHT22;27322;49.488;8.480;2023-06-22T01:12:01;23.80;99.90
41630;DHT22;27322;49.488;8.480;2023-06-22T01:17:32;23.70;99.90
41630;DHT22;27322;49.488;8.480;2023-06-22T01:19:59;23.50;99.90
41630;DHT22;27322;49.488;8.480;2023-06-22T01:22:30;23.30;99.90
41630;DHT22;27322;49.488;8.480;2023-06-22T01:25:17;23.30;99.90
41630;DHT22;27322;49.488;8.480;2023-06-22T01:27:52;23.20;99.90
41630;DHT22;27322;49.488;8.480;2023-06-22T01:30:18;23.20;99.90
41630;DHT22;27322;49.488;8.480;2023-06-22T01:32:44;23.20;99.90
41630;DHT22;27322;49.488;8.480;2023-06-22T01:35:10;23.10;99.90
41630;DHT22;27322;49.488;8.480;2023-06-22T01:37:38;23.00;99.90
41630;DHT22;27322;49.488;8.480;2023-06-22T01:40:05;22.90;99.90
41630;DHT22;27322;49.488;8.480;2023-06-22T01:42:32;22.80;99.90
41630;DHT22;27322;49.488;8.480;2023-06-22T01:44:58;22.70;99.90
41630;DHT22;27322;49.488;8.480;2023-06-22T01:47:25;22.60;99.90
41630;DHT22;27322;49.488;8.480;2023-06-22T01:49:51;22.60;99.90
41630;DHT22;27322;49.488;8.480;2023-06-22T01:52:17;22.50;99.90
41630;DHT22;27322;49.488;8.480;2023-06-22T01:54:43;22.50;99.90
41630;DHT22;27322;49.488;8.480;2023-06-22T01:57:08;22.40;99.90
41630;DHT22;27322;49.488;8.480;2023-06-22T01:59:53;22.40;99.90
41630;DHT22;27322;49.488;8.480;2023-06-22T02:02:21;22.40;99.90
41630;DHT22;27322;49.488;8.480;2023-06-22T02:05:05;22.40;99.90
41630;DHT22;27322;49.488;8.480;2023-06-22T02:07:36;22.40;99.90
41630;DHT22;27322;49.488;8.480;2023-06-22T02:10:06;22.30;99.90
41630;DHT22;27322;49.488;8.480;2023-06-22T02:12:33;22.30;99.90
41630;DHT22;27322;49.488;8.480;2023-06-22T02:15:00;22.30;99.90
41630;DHT22;27322;49.488;8.480;2023-06-22T02:17:26;22.20;99.90
41630;DHT22;27322;49.488;8.480;2023-06-22T02:19:52;22.20;99.90
41630;DHT22;27322;49.488;8.480;2023-06-22T02:22:18;22.20;99.90
41630;DHT22;27322;49.488;8.480;2023-06-22T02:24:43;22.20;99.90
41630;DHT22;27322;49.488;8.480;2023-06-22T02:27:09;22.20;99.90
41630;DHT22;27322;49.488;8.480;2023-06-22T02:29:36;22.20;99.90
41630;DHT22;27322;49.488;8.480;2023-06-22T02:32:02;22.10;99.90
41630;DHT22;27322;49.488;8.480;2023-06-22T02:34:27;22.10;99.90
41630;DHT22;27322;49.488;8.480;2023-06-22T02:36:53;22.10;99.90
41630;DHT22;27322;49.488;8.480;2023-06-22T02:39:24;22.10;99.90
41630;DHT22;27322;49.488;8.480;2023-06-22T02:41:51;22.10;99.90
41630;DHT22;27322;49.488;8.480;2023-06-22T02:44:17;22.10;99.90
41630;DHT22;27322;49.488;8.480;2023-06-22T02:46:43;22.20;99.90
41630;DHT22;27322;49.488;8.480;2023-06-22T02:49:09;22.20;99.90
41630;DHT22;27322;49.488;8.480;2023-06-22T02:51:36;22.20;99.90
41630;DHT22;27322;49.488;8.480;2023-06-22T02:54:05;22.20;99.90
41630;DHT22;27322;49.488;8.480;2023-06-22T02:56:30;22.30;99.90
41630;DHT22;27322;49.488;8.480;2023-06-22T02:58:56;22.40;99.90
41630;DHT22;27322;49.488;8.480;2023-06-22T03:01:29;22.50;99.90
41630;DHT22;27322;49.488;8.480;2023-06-22T03:03:56;22.50;99.90
41630;DHT22;27322;49.488;8.480;2023-06-22T03:06:22;22.50;99.90
41630;DHT22;27322;49.488;8.480;2023-06-22T03:08:51;22.60;99.90
41630;DHT22;27322;49.488;8.480;2023-06-22T03:11:17;22.70;99.90
41630;DHT22;27322;49.488;8.480;2023-06-22T03:13:43;22.80;99.90
41630;DHT22;27322;49.488;8.480;2023-06-22T03:16:09;22.90;99.90
41630;DHT22;27322;49.488;8.480;2023-06-22T03:18:34;23.00;99.90
41630;DHT22;27322;49.488;8.480;2023-06-22T03:21:00;23.00;99.90
41630;DHT22;27322;49.488;8.480;2023-06-22T03:23:27;23.10;99.90
41630;DHT22;27322;49.488;8.480;2023-06-22T03:25:53;23.20;99.90
41630;DHT22;27322;49.488;8.480;2023-06-22T03:28:21;23.30;99.90
41630;DHT22;27322;49.488;8.480;2023-06-22T03:30:47;23.30;99.90
41630;DHT22;27322;49.488;8.480;2023-06-22T03:33:12;23.30;99.90
41630;DHT22;27322;49.488;8.480;2023-06-22T03:35:38;23.30;99.90
41630;DHT22;27322;49.488;8.480;2023-06-22T03:38:03;23.30;99.90
41630;DHT22;27322;49.488;8.480;2023-06-22T03:40:29;23.20;99.90
41630;DHT22;27322;49.488;8.480;2023-06-22T03:42:55;23.10;99.90
41630;DHT22;27322;49.488;8.480;2023-06-22T03:45:21;23.00;99.90
41630;DHT22;27322;49.488;8.480;2023-06-22T03:47:46;23.00;99.90
41630;DHT22;27322;49.488;8.480;2023-06-22T03:50:12;23.00;99.90
41630;DHT22;27322;49.488;8.480;2023-06-22T03:52:39;23.00;99.90
41630;DHT22;27322;49.488;8.480;2023-06-22T03:55:06;23.00;99.90
41630;DHT22;27322;49.488;8.480;2023-06-22T03:57:31;23.00;99.90
41630;DHT22;27322;49.488;8.480;2023-06-22T03:59:57;23.00;99.90
41630;DHT22;27322;49.488;8.480;2023-06-22T04:02:23;22.90;99.90
41630;DHT22;27322;49.488;8.480;2023-06-22T04:04:49;22.90;99.90
41630;DHT22;27322;49.488;8.480;2023-06-22T04:07:15;22.90;99.90
41630;DHT22;27322;49.488;8.480;2023-06-22T04:09:40;22.80;99.90
41630;DHT22;27322;49.488;8.480;2023-06-22T04:12:06;22.80;99.90
41630;DHT22;27322;49.488;8.480;2023-06-22T04:14:32;22.70;99.90
41630;DHT22;27322;49.488;8.480;2023-06-22T04:16:58;22.70;99.90
41630;DHT22;27322;49.488;8.480;2023-06-22T04:19:24;22.70;99.90
41630;DHT22;27322;49.488;8.480;2023-06-22T04:21:49;22.70;99.90
41630;DHT22;27322;49.488;8.480;2023-06-22T04:24:15;22.70;99.90
41630;DHT22;27322;49.488;8.480;2023-06-22T04:26:40;22.70;99.90
41630;DHT22;27322;49.488;8.480;2023-06-22T04:29:07;22.70;99.90
41630;DHT22;27322;49.488;8.480;2023-06-22T04:31:37;22.60;99.90
41630;DHT22;27322;49.488;8.480;2023-06-22T04:34:07;22.60;99.90
41630;DHT22;27322;49.488;8.480;2023-06-22T04:36:38;22.60;99.90
41630;DHT22;27322;49.488;8.480;2023-06-22T04:39:09;22.60;99.90
41630;DHT22;27322;49.488;8.480;2023-06-22T04:41:36;22.60;99.90
41630;DHT22;27322;49.488;8.480;2023-06-22T04:44:14;22.70;99.90
41630;DHT22;27322;49.488;8.480;2023-06-22T04:46:53;22.70;99.90
41630;DHT22;27322;49.488;8.480;2023-06-22T04:49:20;22.70;99.90
41630;DHT22;27322;49.488;8.480;2023-06-22T04:51:47;22.70;99.90
41630;DHT22;27322;49.488;8.480;2023-06-22T04:54:13;22.80;99.90
41630;DHT22;27322;49.488;8.480;2023-06-22T04:56:38;22.90;99.90
41630;DHT22;27322;49.488;8.480;2023-06-22T04:59:06;22.90;99.90
41630;DHT22;27322;49.488;8.480;2023-06-22T05:01:32;23.00;99.90
41630;DHT22;27322;49.488;8.480;2023-06-22T05:03:58;23.00;99.90
41630;DHT22;27322;49.488;8.480;2023-06-22T05:06:26;23.10;99.90
41630;DHT22;27322;49.488;8.480;2023-06-22T05:08:56;23.10;99.90
41630;DHT22;27322;49.488;8.480;2023-06-22T05:11:28;23.10;99.90
41630;DHT22;27322;49.488;8.480;2023-06-22T05:13:54;23.20;99.90
41630;DHT22;27322;49.488;8.480;2023-06-22T05:16:20;23.10;99.90
41630;DHT22;27322;49.488;8.480;2023-06-22T05:18:53;23.10;99.90
41630;DHT22;27322;49.488;8.480;2023-06-22T05:21:28;23.10;99.90
41630;DHT22;27322;49.488;8.480;2023-06-22T05:23:54;23.10;99.90
41630;DHT22;27322;49.488;8.480;2023-06-22T05:26:21;23.10;99.90
41630;DHT22;27322;49.488;8.480;2023-06-22T05:28:47;23.00;99.90
41630;DHT22;27322;49.488;8.480;2023-06-22T05:31:16;23.10;99.90
41630;DHT22;27322;49.488;8.480;2023-06-22T05:33:43;23.10;99.90
41630;DHT22;27322;49.488;8.480;2023-06-22T05:36:09;23.10;99.90
41630;DHT22;27322;49.488;8.480;2023-06-22T05:38:36;23.10;99.90
41630;DHT22;27322;49.488;8.480;2023-06-22T05:41:02;23.10;99.90
41630;DHT22;27322;49.488;8.480;2023-06-22T05:43:28;23.20;99.90
41630;DHT22;27322;49.488;8.480;2023-06-22T05:45:53;23.20;99.90
41630;DHT22;27322;49.488;8.480;2023-06-22T05:48:19;23.10;99.90
41630;DHT22;27322;49.488;8.480;2023-06-22T05:50:45;23.10;99.90
41630;DHT22;27322;49.488;8.480;2023-06-22T05:53:10;23.20;99.90
41630;DHT22;27322;49.488;8.480;2023-06-22T05:55:36;23.20;99.90
41630;DHT22;27322;49.488;8.480;2023-06-22T05:58:02;23.20;99.90
41630;DHT22;27322;49.488;8.480;2023-06-22T06:00:29;23.10;99.90
41630;DHT22;27322;49.488;8.480;2023-06-22T06:02:54;23.10;99.90
41630;DHT22;27322;49.488;8.480;2023-06-22T06:05:20;23.20;99.90
41630;DHT22;27322;49.488;8.480;2023-06-22T06:07:46;23.10;99.90
41630;DHT22;27322;49.488;8.480;2023-06-22T06:10:12;23.10;99.90
41630;DHT22;27322;49.488;8.480;2023-06-22T06:12:38;23.20;99.90
41630;DHT22;27322;49.488;8.480;2023-06-22T06:15:04;23.20;99.90
41630;DHT22;27322;49.488;8.480;2023-06-22T06:17:30;23.30;99.90
41630;DHT22;27322;49.488;8.480;2023-06-22T06:19:56;23.30;99.90
41630;DHT22;27322;49.488;8.480;2023-06-22T06:22:21;23.30;99.90
41630;DHT22;27322;49.488;8.480;2023-06-22T06:24:49;23.30;99.90
41630;DHT22;27322;49.488;8.480;2023-06-22T06:27:15;23.40;99.90
41630;DHT22;27322;49.488;8.480;2023-06-22T06:29:40;23.40;99.90
41630;DHT22;27322;49.488;8.480;2023-06-22T06:32:06;23.40;99.90
41630;DHT22;27322;49.488;8.480;2023-06-22T06:34:32;23.40;99.90
41630;DHT22;27322;49.488;8.480;2023-06-22T06:36:57;23.50;99.90
41630;DHT22;27322;49.488;8.480;2023-06-22T06:39:23;23.50;99.90
41630;DHT22;27322;49.488;8.480;2023-06-22T06:41:48;23.60;99.90
41630;DHT22;27322;49.488;8.480;2023-06-22T06:44:14;23.60;99.90
41630;DHT22;27322;49.488;8.480;2023-06-22T06:46:40;23.70;99.90
41630;DHT22;27322;49.488;8.480;2023-06-22T06:49:07;23.70;99.90
41630;DHT22;27322;49.488;8.480;2023-06-22T06:51:32;23.70;99.90
41630;DHT22;27322;49.488;8.480;2023-06-22T06:53:58;23.80;99.90
41630;DHT22;27322;49.488;8.480;2023-06-22T06:56:24;23.90;99.90
41630;DHT22;27322;49.488;8.480;2023-06-22T06:58:50;24.00;99.90
41630;DHT22;27322;49.488;8.480;2023-06-22T07:01:16;24.10;99.90
41630;DHT22;27322;49.488;8.480;2023-06-22T07:03:41;24.20;99.90
41630;DHT22;27322;49.488;8.480;2023-06-22T07:06:08;24.20;99.90
41630;DHT22;27322;49.488;8.480;2023-06-22T07:08:34;24.20;99.90
41630;DHT22;27322;49.488;8.480;2023-06-22T07:11:01;24.30;99.90
41630;DHT22;27322;49.488;8.480;2023-06-22T07:13:27;24.20;99.90
41630;DHT22;27322;49.488;8.480;2023-06-22T07:15:52;24.20;99.90
41630;DHT22;27322;49.488;8.480;2023-06-22T07:18:18;24.20;99.90
41630;DHT22;27322;49.488;8.480;2023-06-22T07:20:44;24.40;99.90
41630;DHT22;27322;49.488;8.480;2023-06-22T07:23:09;24.40;99.90
41630;DHT22;27322;49.488;8.480;2023-06-22T07:25:35;24.50;99.90
41630;DHT22;27322;49.488;8.480;2023-06-22T07:28:06;24.50;99.90
41630;DHT22;27322;49.488;8.480;2023-06-22T07:30:32;24.60;99.90
41630;DHT22;27322;49.488;8.480;2023-06-22T07:32:59;24.60;99.90
41630;DHT22;27322;49.488;8.480;2023-06-22T07:35:29;24.60;99.90
41630;DHT22;27322;49.488;8.480;2023-06-22T07:37:54;24.70;99.90
41630;DHT22;27322;49.488;8.480;2023-06-22T07:40:20;24.80;99.90
41630;DHT22;27322;49.488;8.480;2023-06-22T07:42:45;24.80;99.90
41630;DHT22;27322;49.488;8.480;2023-06-22T07:45:13;24.90;99.90
41630;DHT22;27322;49.488;8.480;2023-06-22T07:47:39;25.00;99.90
41630;DHT22;27322;49.488;8.480;2023-06-22T07:50:06;25.00;99.90
41630;DHT22;27322;49.488;8.480;2023-06-22T07:52:32;25.10;99.90
41630;DHT22;27322;49.488;8.480;2023-06-22T07:54:58;25.10;99.90
41630;DHT22;27322;49.488;8.480;2023-06-22T07:57:23;25.10;99.90
41630;DHT22;27322;49.488;8.480;2023-06-22T07:59:57;25.20;99.90
41630;DHT22;27322;49.488;8.480;2023-06-22T08:02:24;25.20;99.90
41630;DHT22;27322;49.488;8.480;2023-06-22T08:04:50;25.20;99.90
41630;DHT22;27322;49.488;8.480;2023-06-22T08:07:15;25.20;99.90
41630;DHT22;27322;49.488;8.480;2023-06-22T08:09:46;25.20;99.90
41630;DHT22;27322;49.488;8.480;2023-06-22T08:12:12;25.30;99.90
41630;DHT22;27322;49.488;8.480;2023-06-22T08:14:38;25.30;99.90
41630;DHT22;27322;49.488;8.480;2023-06-22T08:17:04;25.30;99.90
41630;DHT22;27322;49.488;8.480;2023-06-22T08:19:30;25.30;99.90
41630;DHT22;27322;49.488;8.480;2023-06-22T08:21:56;25.40;99.90
41630;DHT22;27322;49.488;8.480;2023-06-22T08:24:23;25.30;99.90
41630;DHT22;27322;49.488;8.480;2023-06-22T08:26:51;25.30;99.90
41630;DHT22;27322;49.488;8.480;2023-06-22T08:29:17;25.40;99.90
41630;DHT22;27322;49.488;8.480;2023-06-22T08:31:43;25.40;99.90
41630;DHT22;27322;49.488;8.480;2023-06-22T08:34:08;25.50;99.90
41630;DHT22;27322;49.488;8.480;2023-06-22T08:36:34;25.50;99.90
41630;DHT22;27322;49.488;8.480;2023-06-22T08:39:03;25.50;99.90
41630;DHT22;27322;49.488;8.480;2023-06-22T08:41:29;25.60;99.90
41630;DHT22;27322;49.488;8.480;2023-06-22T08:43:56;25.60;99.90
41630;DHT22;27322;49.488;8.480;2023-06-22T08:46:22;25.70;99.90
41630;DHT22;27322;49.488;8.480;2023-06-22T08:48:56;25.70;99.90
41630;DHT22;27322;49.488;8.480;2023-06-22T08:51:22;25.80;99.90
41630;DHT22;27322;49.488;8.480;2023-06-22T08:53:47;25.80;99.90
41630;DHT22;27322;49.488;8.480;2023-06-22T08:56:13;25.90;99.90
41630;DHT22;27322;49.488;8.480;2023-06-22T08:58:38;25.90;99.90
41630;DHT22;27322;49.488;8.480;2023-06-22T09:01:04;26.00;99.90
41630;DHT22;27322;49.488;8.480;2023-06-22T09:03:30;26.00;99.90
41630;DHT22;27322;49.488;8.480;2023-06-22T09:05:55;26.00;99.90
41630;DHT22;27322;49.488;8.480;2023-06-22T09:08:21;26.10;99.90
41630;DHT22;27322;49.488;8.480;2023-06-22T09:10:47;26.10;99.90
41630;DHT22;27322;49.488;8.480;2023-06-22T09:13:12;26.10;99.90
41630;DHT22;27322;49.488;8.480;2023-06-22T09:15:38;26.10;99.90
41630;DHT22;27322;49.488;8.480;2023-06-22T09:18:04;26.20;99.90
41630;DHT22;27322;49.488;8.480;2023-06-22T09:20:29;26.20;99.90
41630;DHT22;27322;49.488;8.480;2023-06-22T09:22:55;26.20;99.90
41630;DHT22;27322;49.488;8.480;2023-06-22T09:25:21;26.30;99.90
41630;DHT22;27322;49.488;8.480;2023-06-22T09:27:47;26.40;99.90
41630;DHT22;27322;49.488;8.480;2023-06-22T09:30:13;26.40;99.90
41630;DHT22;27322;49.488;8.480;2023-06-22T09:32:38;26.50;99.90
41630;DHT22;27322;49.488;8.480;2023-06-22T09:35:05;26.50;99.90
41630;DHT22;27322;49.488;8.480;2023-06-22T09:37:32;26.50;99.90
41630;DHT22;27322;49.488;8.480;2023-06-22T09:39:57;26.60;99.90
41630;DHT22;27322;49.488;8.480;2023-06-22T09:42:23;26.60;99.90
41630;DHT22;27322;49.488;8.480;2023-06-22T09:44:48;26.60;99.90
41630;DHT22;27322;49.488;8.480;2023-06-22T09:47:14;26.70;99.90
41630;DHT22;27322;49.488;8.480;2023-06-22T09:49:39;26.80;99.90
41630;DHT22;27322;49.488;8.480;2023-06-22T09:52:05;26.80;99.90
41630;DHT22;27322;49.488;8.480;2023-06-22T09:54:31;26.90;99.90
41630;DHT22;27322;49.488;8.480;2023-06-22T09:56:57;27.00;99.90
41630;DHT22;27322;49.488;8.480;2023-06-22T09:59:22;27.20;99.90
41630;DHT22;27322;49.488;8.480;2023-06-22T10:01:48;27.30;99.90
41630;DHT22;27322;49.488;8.480;2023-06-22T10:04:13;27.40;99.90
41630;DHT22;27322;49.488;8.480;2023-06-22T10:06:39;27.40;99.90
41630;DHT22;27322;49.488;8.480;2023-06-22T10:09:06;27.40;99.90
41630;DHT22;27322;49.488;8.480;2023-06-22T10:11:33;27.50;99.90
41630;DHT22;27322;49.488;8.480;2023-06-22T10:14:01;27.70;99.90
41630;DHT22;27322;49.488;8.480;2023-06-22T10:16:33;27.90;99.90
41630;DHT22;27322;49.488;8.480;2023-06-22T10:19:00;28.20;99.90
41630;DHT22;27322;49.488;8.480;2023-06-22T10:21:26;28.40;99.90
41630;DHT22;27322;49.488;8.480;2023-06-22T10:23:54;28.30;99.90
41630;DHT22;27322;49.488;8.480;2023-06-22T10:26:19;28.30;99.90
41630;DHT22;27322;49.488;8.480;2023-06-22T10:28:45;28.30;99.90
41630;DHT22;27322;49.488;8.480;2023-06-22T10:31:10;28.20;99.90
41630;DHT22;27322;49.488;8.480;2023-06-22T10:33:36;28.20;99.90
41630;DHT22;27322;49.488;8.480;2023-06-22T10:36:01;28.20;99.90
41630;DHT22;27322;49.488;8.480;2023-06-22T10:38:27;28.20;99.90
41630;DHT22;27322;49.488;8.480;2023-06-22T10:40:53;28.10;99.90
41630;DHT22;27322;49.488;8.480;2023-06-22T10:43:18;28.20;99.90
41630;DHT22;27322;49.488;8.480;2023-06-22T10:45:44;28.20;99.90
41630;DHT22;27322;49.488;8.480;2023-06-22T10:48:10;28.10;99.90
41630;DHT22;27322;49.488;8.480;2023-06-22T10:50:35;28.10;99.90
41630;DHT22;27322;49.488;8.480;2023-06-22T10:53:01;28.10;99.90
41630;DHT22;27322;49.488;8.480;2023-06-22T10:55:26;28.20;99.90
41630;DHT22;27322;49.488;8.480;2023-06-22T10:57:52;28.10;99.90
41630;DHT22;27322;49.488;8.480;2023-06-22T11:00:18;28.10;99.90
41630;DHT22;27322;49.488;8.480;2023-06-22T11:02:44;28.10;99.90
41630;DHT22;27322;49.488;8.480;2023-06-22T11:05:09;28.20;99.90
41630;DHT22;27322;49.488;8.480;2023-06-22T11:07:37;28.20;99.90
41630;DHT22;27322;49.488;8.480;2023-06-22T11:10:03;28.20;99.90
41630;DHT22;27322;49.488;8.480;2023-06-22T11:12:28;28.20;99.90
41630;DHT22;27322;49.488;8.480;2023-06-22T11:14:54;28.10;99.90
41630;DHT22;27322;49.488;8.480;2023-06-22T11:17:22;28.00;99.90
41630;DHT22;27322;49.488;8.480;2023-06-22T11:19:48;28.00;99.90
41630;DHT22;27322;49.488;8.480;2023-06-22T11:22:13;28.00;99.90
41630;DHT22;27322;49.488;8.480;2023-06-22T11:24:39;28.00;99.90
41630;DHT22;27322;49.488;8.480;2023-06-22T11:27:05;28.00;99.90
41630;DHT22;27322;49.488;8.480;2023-06-22T11:29:31;27.90;99.90
41630;DHT22;27322;49.488;8.480;2023-06-22T11:31:56;28.00;99.90
41630;DHT22;27322;49.488;8.480;2023-06-22T11:34:22;28.00;99.90
41630;DHT22;27322;49.488;8.480;2023-06-22T11:36:47;28.00;99.90
41630;DHT22;27322;49.488;8.480;2023-06-22T11:39:13;27.90;99.90
41630;DHT22;27322;49.488;8.480;2023-06-22T11:41:40;27.80;99.90
41630;DHT22;27322;49.488;8.480;2023-06-22T11:44:06;27.80;99.90
41630;DHT22;27322;49.488;8.480;2023-06-22T11:46:32;27.80;99.90
41630;DHT22;27322;49.488;8.480;2023-06-22T11:48:58;27.80;99.90
41630;DHT22;27322;49.488;8.480;2023-06-22T11:51:24;27.90;99.90
41630;DHT22;27322;49.488;8.480;2023-06-22T11:53:49;28.00;99.90
41630;DHT22;27322;49.488;8.480;2023-06-22T11:56:15;28.10;99.90
41630;DHT22;27322;49.488;8.480;2023-06-22T11:58:40;28.10;99.90
41630;DHT22;27322;49.488;8.480;2023-06-22T12:01:06;28.20;99.90
41630;DHT22;27322;49.488;8.480;2023-06-22T12:03:32;28.10;99.90
41630;DHT22;27322;49.488;8.480;2023-06-22T12:05:59;28.20;99.90
41630;DHT22;27322;49.488;8.480;2023-06-22T12:08:25;28.20;99.90
41630;DHT22;27322;49.488;8.480;2023-06-22T12:10:50;28.10;99.90
41630;DHT22;27322;49.488;8.480;2023-06-22T12:13:17;28.10;99.90
41630;DHT22;27322;49.488;8.480;2023-06-22T12:15:43;28.10;99.90
41630;DHT22;27322;49.488;8.480;2023-06-22T12:18:08;28.20;99.90
41630;DHT22;27322;49.488;8.480;2023-06-22T12:20:34;28.20;99.90
41630;DHT22;27322;49.488;8.480;2023-06-22T12:23:00;28.30;99.90
41630;DHT22;27322;49.488;8.480;2023-06-22T12:25:25;28.30;99.90
41630;DHT22;27322;49.488;8.480;2023-06-22T12:27:51;28.30;99.90
41630;DHT22;27322;49.488;8.480;2023-06-22T12:30:16;28.20;99.90
41630;DHT22;27322;49.488;8.480;2023-06-22T12:32:42;28.20;99.90
41630;DHT22;27322;49.488;8.480;2023-06-22T12:35:08;28.20;99.90
41630;DHT22;27322;49.488;8.480;2023-06-22T12:37:40;28.20;99.90
41630;DHT22;27322;49.488;8.480;2023-06-22T12:40:06;28.30;99.90
41630;DHT22;27322;49.488;8.480;2023-06-22T12:42:32;28.30;99.90
41630;DHT22;27322;49.488;8.480;2023-06-22T12:44:57;28.40;99.90
41630;DHT22;27322;49.488;8.480;2023-06-22T12:47:23;28.30;99.90
41630;DHT22;27322;49.488;8.480;2023-06-22T12:49:48;28.30;99.90
41630;DHT22;27322;49.488;8.480;2023-06-22T12:52:14;28.40;99.90
41630;DHT22;27322;49.488;8.480;2023-06-22T12:54:40;28.50;99.90
41630;DHT22;27322;49.488;8.480;2023-06-22T12:57:05;28.50;99.90
41630;DHT22;27322;49.488;8.480;2023-06-22T12:59:31;28.50;99.90
41630;DHT22;27322;49.488;8.480;2023-06-22T13:01:57;28.60;99.90
41630;DHT22;27322;49.488;8.480;2023-06-22T13:04:22;28.70;99.90
41630;DHT22;27322;49.488;8.480;2023-06-22T13:06:48;28.70;99.90
41630;DHT22;27322;49.488;8.480;2023-06-22T13:09:15;28.80;99.90
41630;DHT22;27322;49.488;8.480;2023-06-22T13:11:41;28.70;99.90
41630;DHT22;27322;49.488;8.480;2023-06-22T13:14:07;28.70;99.90
41630;DHT22;27322;49.488;8.480;2023-06-22T13:16:32;28.70;99.90
41630;DHT22;27322;49.488;8.480;2023-06-22T13:18:58;28.60;99.90
41630;DHT22;27322;49.488;8.480;2023-06-22T13:21:24;28.70;99.90
41630;DHT22;27322;49.488;8.480;2023-06-22T13:23:49;28.60;99.90
41630;DHT22;27322;49.488;8.480;2023-06-22T13:26:15;28.60;99.90
41630;DHT22;27322;49.488;8.480;2023-06-22T13:28:40;28.50;99.90
41630;DHT22;27322;49.488;8.480;2023-06-22T13:31:06;28.50;99.90
41630;DHT22;27322;49.488;8.480;2023-06-22T13:33:32;28.60;99.90
41630;DHT22;27322;49.488;8.480;2023-06-22T13:35:57;28.50;99.90
41630;DHT22;27322;49.488;8.480;2023-06-22T13:38:23;28.40;99.90
41630;DHT22;27322;49.488;8.480;2023-06-22T13:40:49;28.40;99.90
41630;DHT22;27322;49.488;8.480;2023-06-22T13:43:15;28.50;99.90
41630;DHT22;27322;49.488;8.480;2023-06-22T13:45:41;28.60;99.90
41630;DHT22;27322;49.488;8.480;2023-06-22T13:48:07;28.60;99.90
41630;DHT22;27322;49.488;8.480;2023-06-22T13:50:33;28.60;99.90
41630;DHT22;27322;49.488;8.480;2023-06-22T13:52:58;28.70;99.90
41630;DHT22;27322;49.488;8.480;2023-06-22T13:55:24;28.80;99.90
41630;DHT22;27322;49.488;8.480;2023-06-22T13:57:50;28.80;99.90
41630;DHT22;27322;49.488;8.480;2023-06-22T14:00:17;28.80;99.90
41630;DHT22;27322;49.488;8.480;2023-06-22T14:02:42;28.80;99.80
41630;DHT22;27322;49.488;8.480;2023-06-22T14:05:08;28.80;99.80
41630;DHT22;27322;49.488;8.480;2023-06-22T14:07:34;28.80;99.90
41630;DHT22;27322;49.488;8.480;2023-06-22T14:10:00;28.80;99.90
41630;DHT22;27322;49.488;8.480;2023-06-22T14:12:26;28.70;99.90
41630;DHT22;27322;49.488;8.480;2023-06-22T14:14:52;28.70;99.70
41630;DHT22;27322;49.488;8.480;2023-06-22T14:17:18;28.60;99.50
41630;DHT22;27322;49.488;8.480;2023-06-22T14:19:49;28.50;99.90
41630;DHT22;27322;49.488;8.480;2023-06-22T14:22:15;28.50;99.90
41630;DHT22;27322;49.488;8.480;2023-06-22T14:24:40;28.40;99.90
41630;DHT22;27322;49.488;8.480;2023-06-22T14:27:06;28.30;99.90
41630;DHT22;27322;49.488;8.480;2023-06-22T14:29:37;28.30;99.90
41630;DHT22;27322;49.488;8.480;2023-06-22T14:32:02;28.20;99.90
41630;DHT22;27322;49.488;8.480;2023-06-22T14:34:28;28.10;99.90
41630;DHT22;27322;49.488;8.480;2023-06-22T14:36:53;28.10;99.90
41630;DHT22;27322;49.488;8.480;2023-06-22T14:39:19;28.00;99.90
41630;DHT22;27322;49.488;8.480;2023-06-22T14:41:46;28.00;99.90
41630;DHT22;27322;49.488;8.480;2023-06-22T14:44:11;27.90;99.90
41630;DHT22;27322;49.488;8.480;2023-06-22T14:46:37;27.90;99.90
41630;DHT22;27322;49.488;8.480;2023-06-22T14:49:03;27.90;99.90
41630;DHT22;27322;49.488;8.480;2023-06-22T14:51:28;27.90;99.90
41630;DHT22;27322;49.488;8.480;2023-06-22T14:53:54;27.90;99.90
41630;DHT22;27322;49.488;8.480;2023-06-22T14:56:19;27.90;99.90
41630;DHT22;27322;49.488;8.480;2023-06-22T14:58:45;27.90;99.90
41630;DHT22;27322;49.488;8.480;2023-06-22T15:01:11;27.90;99.90
41630;DHT22;27322;49.488;8.480;2023-06-22T15:03:37;27.90;99.90
41630;DHT22;27322;49.488;8.480;2023-06-22T15:06:03;27.80;99.90
41630;DHT22;27322;49.488;8.480;2023-06-22T15:08:29;27.90;99.90
41630;DHT22;27322;49.488;8.480;2023-06-22T15:10:57;27.80;99.90
41630;DHT22;27322;49.488;8.480;2023-06-22T15:13:23;27.80;99.90
41630;DHT22;27322;49.488;8.480;2023-06-22T15:15:50;27.80;99.90
41630;DHT22;27322;49.488;8.480;2023-06-22T15:18:16;27.80;99.90
41630;DHT22;27322;49.488;8.480;2023-06-22T15:20:42;27.90;99.90
41630;DHT22;27322;49.488;8.480;2023-06-22T15:23:11;27.90;99.90
41630;DHT22;27322;49.488;8.480;2023-06-22T15:25:37;28.00;99.90
41630;DHT22;27322;49.488;8.480;2023-06-22T15:28:02;27.90;99.90